createdAt,value
2019-01-10T00:00:11.682Z,927.2
2019-01-10T00:00:24.651Z,927.25
2019-01-10T00:00:37.788Z,927.2
2019-01-10T00:00:50.755Z,927.2
2019-01-10T00:01:03.740Z,927.22
2019-01-10T00:01:16.655Z,927.23
2019-01-10T00:01:29.664Z,927.23
2019-01-10T00:01:42.703Z,927.25
2019-01-10T00:01:56.684Z,927.27
2019-01-10T00:02:09.715Z,927.21
2019-01-10T00:02:22.668Z,927.28
2019-01-10T00:02:35.700Z,927.24
2019-01-10T00:02:48.779Z,927.26
2019-01-10T00:03:01.346Z,927.28
2019-01-10T00:03:14.246Z,927.29
2019-01-10T00:03:27.204Z,927.28
2019-01-10T00:03:39.743Z,927.26
2019-01-10T00:03:52.696Z,927.31
2019-01-10T00:04:05.741Z,927.33
2019-01-10T00:04:18.729Z,927.27
2019-01-10T00:04:31.687Z,927.29
2019-01-10T00:04:44.775Z,927.3
2019-01-10T00:04:57.688Z,927.28
2019-01-10T00:05:10.721Z,927.33
2019-01-10T00:05:23.684Z,927.29
2019-01-10T00:05:36.766Z,927.29
2019-01-10T00:05:50.369Z,927.28
2019-01-10T00:06:03.420Z,927.28
2019-01-10T00:06:16.463Z,927.25
2019-01-10T00:06:29.518Z,927.27
2019-01-10T00:06:42.539Z,927.31
2019-01-10T00:06:55.530Z,927.34
2019-01-10T00:07:08.520Z,927.3
2019-01-10T00:07:21.458Z,927.32
2019-01-10T00:07:34.419Z,927.3
2019-01-10T00:07:47.384Z,927.31
2019-01-10T00:08:00.452Z,927.32
2019-01-10T00:08:13.482Z,927.34
2019-01-10T00:08:26.430Z,927.36
2019-01-10T00:08:39.410Z,927.32
2019-01-10T00:08:52.414Z,927.36
2019-01-10T00:09:05.420Z,927.37
2019-01-10T00:09:18.379Z,927.36
2019-01-10T00:09:31.334Z,927.36
2019-01-10T00:09:44.331Z,927.36
2019-01-10T00:09:57.253Z,927.33
2019-01-10T00:10:10.242Z,927.32
2019-01-10T00:10:24.110Z,927.31
2019-01-10T00:10:37.132Z,927.37
2019-01-10T00:10:50.098Z,927.33
2019-01-10T00:11:03.166Z,927.34
2019-01-10T00:11:16.223Z,927.4
2019-01-10T00:11:29.239Z,927.35
2019-01-10T00:11:42.178Z,927.37
2019-01-10T00:11:55.162Z,927.4
2019-01-10T00:12:08.169Z,927.37
2019-01-10T00:12:21.192Z,927.38
2019-01-10T00:12:43.370Z,927.38
2019-01-10T00:12:55.923Z,927.41
2019-01-10T00:13:08.922Z,927.39
2019-01-10T00:13:21.884Z,927.42
2019-01-10T00:13:34.925Z,927.38
2019-01-10T00:13:47.973Z,927.35
2019-01-10T00:14:01.055Z,927.39
2019-01-10T00:14:14.031Z,927.38
2019-01-10T00:14:26.956Z,927.43
2019-01-10T00:14:39.922Z,927.43
2019-01-10T00:14:52.895Z,927.41
2019-01-10T00:15:05.467Z,927.47
2019-01-10T00:15:18.456Z,927.42
2019-01-10T00:15:31.417Z,927.42
2019-01-10T00:15:44.547Z,927.43
2019-01-10T00:15:57.542Z,927.44
2019-01-10T00:16:10.502Z,927.44
2019-01-10T00:16:23.513Z,927.45
2019-01-10T00:16:36.507Z,927.44
2019-01-10T00:16:49.504Z,927.49
2019-01-10T00:17:02.447Z,927.48
2019-01-10T00:17:15.440Z,927.44
2019-01-10T00:17:28.407Z,927.45
2019-01-10T00:17:41.398Z,927.46
2019-01-10T00:17:54.452Z,927.48
2019-01-10T00:18:07.410Z,927.46
2019-01-10T00:18:20.378Z,927.52
2019-01-10T00:18:33.389Z,927.5
2019-01-10T00:18:46.389Z,927.43
2019-01-10T00:18:59.388Z,927.46
2019-01-10T00:19:12.406Z,927.47
2019-01-10T00:19:25.428Z,927.47
2019-01-10T00:19:38.430Z,927.49
2019-01-10T00:19:51.433Z,927.5
2019-01-10T00:20:04.471Z,927.51
2019-01-10T00:20:17.506Z,927.48
2019-01-10T00:20:30.495Z,927.44
2019-01-10T00:20:43.415Z,927.46
2019-01-10T00:20:57.383Z,927.45
2019-01-10T00:21:10.345Z,927.47
2019-01-10T00:21:23.351Z,927.49
2019-01-10T00:21:36.380Z,927.48
2019-01-10T00:21:49.361Z,927.51
2019-01-10T00:22:02.408Z,927.46
2019-01-10T00:22:15.440Z,927.51
2019-01-10T00:22:28.462Z,927.49
2019-01-10T00:22:41.443Z,927.49
2019-01-10T00:22:54.436Z,927.5
2019-01-10T00:23:07.464Z,927.43
2019-01-10T00:23:20.465Z,927.52
2019-01-10T00:23:33.461Z,927.48
2019-01-10T00:23:46.500Z,927.5
2019-01-10T00:23:59.456Z,927.49
2019-01-10T00:24:12.444Z,927.48
2019-01-10T00:24:25.475Z,927.46
2019-01-10T00:24:38.483Z,927.42
2019-01-10T00:24:51.485Z,927.47
2019-01-10T00:25:04.039Z,927.51
2019-01-10T00:25:17.026Z,927.46
2019-01-10T00:25:30.011Z,927.47
2019-01-10T00:25:43.073Z,927.48
2019-01-10T00:25:56.035Z,927.47
2019-01-10T00:26:08.984Z,927.5
2019-01-10T00:26:22.002Z,927.47
2019-01-10T00:26:34.972Z,927.47
2019-01-10T00:26:47.954Z,927.48
2019-01-10T00:27:00.988Z,927.45
2019-01-10T00:27:13.944Z,927.46
2019-01-10T00:27:26.936Z,927.45
2019-01-10T00:27:39.492Z,927.47
2019-01-10T00:27:52.445Z,927.46
2019-01-10T00:28:05.000Z,927.47
2019-01-10T00:28:17.978Z,927.49
2019-01-10T00:28:30.925Z,927.48
2019-01-10T00:28:43.959Z,927.45
2019-01-10T00:28:57.001Z,927.45
2019-01-10T00:29:10.027Z,927.44
2019-01-10T00:29:22.945Z,927.46
2019-01-10T00:29:35.950Z,927.49
2019-01-10T00:29:48.962Z,927.46
2019-01-10T00:30:02.001Z,927.5
2019-01-10T00:30:14.604Z,927.49
2019-01-10T00:30:27.599Z,927.51
2019-01-10T00:30:40.576Z,927.57
2019-01-10T00:30:53.561Z,927.51
2019-01-10T00:31:06.506Z,927.54
2019-01-10T00:31:19.543Z,927.51
2019-01-10T00:31:32.524Z,927.5
2019-01-10T00:31:45.469Z,927.5
2019-01-10T00:31:58.463Z,927.52
2019-01-10T00:32:11.459Z,927.52
2019-01-10T00:32:24.481Z,927.59
2019-01-10T00:32:37.069Z,927.55
2019-01-10T00:32:50.102Z,927.53
2019-01-10T00:33:03.104Z,927.56
2019-01-10T00:33:16.066Z,927.57
2019-01-10T00:33:29.082Z,927.58
2019-01-10T00:33:42.138Z,927.59
2019-01-10T00:33:55.122Z,927.54
2019-01-10T00:34:08.150Z,927.61
2019-01-10T00:34:21.155Z,927.59
2019-01-10T00:34:34.177Z,927.59
2019-01-10T00:34:47.149Z,927.61
2019-01-10T00:35:00.301Z,927.58
2019-01-10T00:35:13.304Z,927.59
2019-01-10T00:35:26.302Z,927.57
2019-01-10T00:35:39.242Z,927.54
2019-01-10T00:35:53.007Z,927.57
2019-01-10T00:36:05.938Z,927.56
2019-01-10T00:36:18.979Z,927.58
2019-01-10T00:36:32.020Z,927.6
2019-01-10T00:36:44.989Z,927.57
2019-01-10T00:36:58.009Z,927.57
2019-01-10T00:37:11.003Z,927.56
2019-01-10T00:37:24.074Z,927.6
2019-01-10T00:37:36.627Z,927.58
2019-01-10T00:37:49.626Z,927.58
2019-01-10T00:38:02.623Z,927.58
2019-01-10T00:38:15.602Z,927.54
2019-01-10T00:38:28.560Z,927.57
2019-01-10T00:38:41.569Z,927.54
2019-01-10T00:38:54.497Z,927.55
2019-01-10T00:39:07.471Z,927.53
2019-01-10T00:39:20.407Z,927.57
2019-01-10T00:39:33.342Z,927.56
2019-01-10T00:39:46.567Z,927.53
2019-01-10T00:39:59.582Z,927.54
2019-01-10T00:40:12.588Z,927.55
2019-01-10T00:40:25.567Z,927.56
2019-01-10T00:40:38.540Z,927.57
2019-01-10T00:40:51.565Z,927.55
2019-01-10T00:41:04.525Z,927.57
2019-01-10T00:41:17.534Z,927.57
2019-01-10T00:41:30.459Z,927.52
2019-01-10T00:41:43.410Z,927.57
2019-01-10T00:41:56.430Z,927.56
2019-01-10T00:42:09.427Z,927.53
2019-01-10T00:42:22.482Z,927.54
2019-01-10T00:42:35.427Z,927.57
2019-01-10T00:42:56.141Z,927.56
2019-01-10T00:43:08.687Z,927.55
2019-01-10T00:43:21.653Z,927.53
2019-01-10T00:43:34.621Z,927.55
2019-01-10T00:43:47.604Z,927.57
2019-01-10T00:44:00.589Z,927.6
2019-01-10T00:44:13.601Z,927.58
2019-01-10T00:44:26.663Z,927.59
2019-01-10T00:44:39.643Z,927.57
2019-01-10T00:44:52.636Z,927.6
2019-01-10T00:45:05.629Z,927.59
2019-01-10T00:45:18.652Z,927.58
2019-01-10T00:45:31.743Z,927.56
2019-01-10T00:45:44.740Z,927.59
2019-01-10T00:45:57.714Z,927.55
2019-01-10T00:46:10.861Z,927.59
2019-01-10T00:46:23.855Z,927.62
2019-01-10T00:46:36.835Z,927.6
2019-01-10T00:46:49.933Z,927.6
2019-01-10T00:47:02.915Z,927.61
2019-01-10T00:47:15.906Z,927.64
2019-01-10T00:47:28.927Z,927.63
2019-01-10T00:47:41.883Z,927.65
2019-01-10T00:47:54.891Z,927.64
2019-01-10T00:48:07.888Z,927.62
2019-01-10T00:48:20.861Z,927.63
2019-01-10T00:48:33.864Z,927.65
2019-01-10T00:48:46.869Z,927.62
2019-01-10T00:48:59.853Z,927.66
2019-01-10T00:49:12.870Z,927.68
2019-01-10T00:49:25.877Z,927.69
2019-01-10T00:49:38.915Z,927.69
2019-01-10T00:49:51.921Z,927.65
2019-01-10T00:50:04.884Z,927.65
2019-01-10T00:50:17.895Z,927.68
2019-01-10T00:50:30.863Z,927.7
2019-01-10T00:50:43.833Z,927.72
2019-01-10T00:50:56.845Z,927.7
2019-01-10T00:51:10.648Z,927.71
2019-01-10T00:51:23.595Z,927.71
2019-01-10T00:51:36.615Z,927.71
2019-01-10T00:51:49.571Z,927.72
2019-01-10T00:52:02.587Z,927.7
2019-01-10T00:52:15.615Z,927.72
2019-01-10T00:52:28.645Z,927.69
2019-01-10T00:52:41.680Z,927.69
2019-01-10T00:52:54.648Z,927.71
2019-01-10T00:53:07.680Z,927.73
2019-01-10T00:53:20.654Z,927.74
2019-01-10T00:53:33.628Z,927.72
2019-01-10T00:53:46.689Z,927.73
2019-01-10T00:53:59.687Z,927.73
2019-01-10T00:54:12.692Z,927.74
2019-01-10T00:54:25.703Z,927.71
2019-01-10T00:54:38.743Z,927.72
2019-01-10T00:54:51.692Z,927.72
2019-01-10T00:55:04.647Z,927.77
2019-01-10T00:55:17.676Z,927.71
2019-01-10T00:55:30.649Z,927.75
2019-01-10T00:55:43.768Z,927.74
2019-01-10T00:55:56.762Z,927.7
2019-01-10T00:56:10.020Z,927.74
2019-01-10T00:56:22.991Z,927.72
2019-01-10T00:56:35.968Z,927.69
2019-01-10T00:56:48.923Z,927.78
2019-01-10T00:57:01.935Z,927.77
2019-01-10T00:57:14.914Z,927.74
2019-01-10T00:57:27.881Z,927.74
2019-01-10T00:57:40.870Z,927.73
2019-01-10T00:57:53.822Z,927.69
2019-01-10T00:58:06.777Z,927.7
2019-01-10T00:58:19.768Z,927.73
2019-01-10T00:58:32.812Z,927.67
2019-01-10T00:58:45.787Z,927.72
2019-01-10T00:58:58.811Z,927.74
2019-01-10T00:59:11.824Z,927.7
2019-01-10T00:59:24.795Z,927.73
2019-01-10T00:59:37.819Z,927.72
2019-01-10T00:59:50.821Z,927.72
2019-01-10T01:00:03.805Z,927.7
2019-01-10T01:00:16.796Z,927.75
2019-01-10T01:00:29.841Z,927.74
2019-01-10T01:00:42.850Z,927.77
2019-01-10T01:00:55.841Z,927.72
2019-01-10T01:01:08.882Z,927.73
2019-01-10T01:01:21.894Z,927.73
2019-01-10T01:01:34.927Z,927.77
2019-01-10T01:01:47.929Z,927.74
2019-01-10T01:02:00.917Z,927.75
2019-01-10T01:02:13.892Z,927.77
2019-01-10T01:02:26.905Z,927.81
2019-01-10T01:02:39.960Z,927.81
2019-01-10T01:02:52.493Z,927.79
2019-01-10T01:03:05.500Z,927.77
2019-01-10T01:03:18.516Z,927.79
2019-01-10T01:03:31.494Z,927.82
2019-01-10T01:03:44.453Z,927.83
2019-01-10T01:03:57.421Z,927.77
2019-01-10T01:04:10.439Z,927.8
2019-01-10T01:04:23.383Z,927.86
2019-01-10T01:04:36.355Z,927.79
2019-01-10T01:04:49.371Z,927.79
2019-01-10T01:05:02.412Z,927.81
2019-01-10T01:05:15.421Z,927.8
2019-01-10T01:05:28.543Z,927.85
2019-01-10T01:05:41.537Z,927.82
2019-01-10T01:05:54.547Z,927.85
2019-01-10T01:06:08.120Z,927.86
2019-01-10T01:06:22.782Z,927.87
2019-01-10T01:06:35.749Z,927.85
2019-01-10T01:06:48.222Z,927.86
2019-01-10T01:07:01.133Z,927.86
2019-01-10T01:07:14.138Z,927.89
2019-01-10T01:07:26.744Z,927.89
2019-01-10T01:07:39.730Z,927.89
2019-01-10T01:07:52.757Z,927.88
2019-01-10T01:08:05.785Z,927.88
2019-01-10T01:08:18.777Z,927.88
2019-01-10T01:08:31.771Z,927.89
2019-01-10T01:08:44.778Z,927.86
2019-01-10T01:08:57.738Z,927.88
2019-01-10T01:09:10.701Z,927.88
2019-01-10T01:09:23.691Z,927.89
2019-01-10T01:09:36.627Z,927.89
2019-01-10T01:09:49.592Z,927.93
2019-01-10T01:10:02.573Z,927.92
2019-01-10T01:10:15.603Z,927.93
2019-01-10T01:10:28.644Z,927.87
2019-01-10T01:10:41.623Z,927.91
2019-01-10T01:10:54.590Z,927.91
2019-01-10T01:11:07.560Z,927.93
2019-01-10T01:11:20.547Z,927.92
2019-01-10T01:11:33.621Z,927.91
2019-01-10T01:11:46.590Z,927.92
2019-01-10T01:11:59.626Z,927.94
2019-01-10T01:12:12.654Z,927.95
2019-01-10T01:12:25.689Z,927.92
2019-01-10T01:12:38.634Z,927.95
2019-01-10T01:12:59.594Z,927.96
2019-01-10T01:13:12.527Z,927.96
2019-01-10T01:13:25.461Z,927.95
2019-01-10T01:13:38.413Z,927.96
2019-01-10T01:13:51.380Z,927.97
2019-01-10T01:14:04.352Z,927.99
2019-01-10T01:14:17.300Z,927.97
2019-01-10T01:14:30.202Z,927.99
2019-01-10T01:14:43.227Z,927.98
2019-01-10T01:14:56.174Z,927.98
2019-01-10T01:15:09.130Z,927.99
2019-01-10T01:15:22.129Z,927.98
2019-01-10T01:15:35.114Z,927.96
2019-01-10T01:15:48.087Z,927.97
2019-01-10T01:16:01.035Z,927.96
2019-01-10T01:16:14.005Z,928
2019-01-10T01:16:26.996Z,927.99
2019-01-10T01:16:39.546Z,928
2019-01-10T01:16:52.525Z,928.01
2019-01-10T01:17:05.538Z,928.05
2019-01-10T01:17:20.020Z,928.05
2019-01-10T01:17:33.038Z,928.03
2019-01-10T01:17:46.067Z,928.05
2019-01-10T01:17:59.128Z,928.03
2019-01-10T01:18:12.125Z,928.06
2019-01-10T01:18:25.124Z,928.06
2019-01-10T01:18:38.095Z,928.07
2019-01-10T01:18:51.041Z,928.07
2019-01-10T01:19:04.011Z,928.07
2019-01-10T01:19:16.997Z,928.11
2019-01-10T01:19:29.513Z,928.09
2019-01-10T01:19:42.467Z,928.1
2019-01-10T01:19:55.401Z,928.08
2019-01-10T01:20:08.368Z,928.11
2019-01-10T01:20:21.405Z,928.08
2019-01-10T01:20:34.438Z,928.09
2019-01-10T01:20:47.404Z,928.05
2019-01-10T01:21:00.366Z,928.12
2019-01-10T01:21:14.226Z,928.1
2019-01-10T01:21:27.251Z,928.11
2019-01-10T01:21:40.281Z,928.08
2019-01-10T01:21:53.288Z,928.08
2019-01-10T01:22:05.786Z,928.07
2019-01-10T01:22:18.777Z,928.11
2019-01-10T01:22:31.781Z,928.06
2019-01-10T01:22:44.762Z,928.13
2019-01-10T01:22:57.781Z,928.14
2019-01-10T01:23:10.773Z,928.07
2019-01-10T01:23:23.731Z,928.08
2019-01-10T01:23:36.695Z,928.07
2019-01-10T01:23:49.701Z,928.09
2019-01-10T01:24:02.214Z,928.07
2019-01-10T01:24:15.350Z,928.08
2019-01-10T01:24:28.320Z,928.11
2019-01-10T01:24:41.332Z,928.1
2019-01-10T01:24:54.323Z,928.1
2019-01-10T01:25:07.346Z,928.13
2019-01-10T01:25:20.355Z,928.11
2019-01-10T01:25:33.357Z,928.11
2019-01-10T01:25:46.341Z,928.1
2019-01-10T01:25:59.345Z,928.09
2019-01-10T01:26:12.350Z,928.09
2019-01-10T01:26:25.379Z,928.08
2019-01-10T01:26:38.383Z,928.08
2019-01-10T01:26:51.351Z,928.1
2019-01-10T01:27:04.321Z,928.07
2019-01-10T01:27:17.353Z,928.05
2019-01-10T01:27:30.366Z,928.06
2019-01-10T01:27:43.350Z,928.07
2019-01-10T01:27:56.319Z,928.04
2019-01-10T01:28:09.211Z,928.05
2019-01-10T01:28:22.190Z,928.03
2019-01-10T01:28:35.211Z,927.99
2019-01-10T01:28:48.241Z,928.03
2019-01-10T01:29:01.191Z,928.03
2019-01-10T01:29:14.213Z,928.03
2019-01-10T01:29:28.759Z,928.05
2019-01-10T01:29:41.787Z,928.03
2019-01-10T01:29:54.754Z,928.02
2019-01-10T01:30:07.782Z,928.04
2019-01-10T01:30:20.785Z,927.99
2019-01-10T01:30:33.792Z,927.96
2019-01-10T01:30:46.758Z,928
2019-01-10T01:30:59.779Z,928.01
2019-01-10T01:31:12.798Z,928.01
2019-01-10T01:31:26.084Z,927.98
2019-01-10T01:31:39.086Z,928.02
2019-01-10T01:31:52.068Z,927.96
2019-01-10T01:32:05.017Z,927.96
2019-01-10T01:32:18.040Z,927.93
2019-01-10T01:32:31.023Z,927.94
2019-01-10T01:32:44.021Z,927.96
2019-01-10T01:32:56.994Z,927.89
2019-01-10T01:33:10.102Z,927.9
2019-01-10T01:33:23.116Z,927.98
2019-01-10T01:33:36.144Z,927.95
2019-01-10T01:33:49.126Z,927.89
2019-01-10T01:34:02.126Z,927.88
2019-01-10T01:34:15.101Z,927.86
2019-01-10T01:34:28.070Z,927.88
2019-01-10T01:34:41.070Z,927.88
2019-01-10T01:34:54.078Z,927.89
2019-01-10T01:35:07.177Z,927.86
2019-01-10T01:35:22.676Z,927.85
2019-01-10T01:35:35.791Z,927.81
2019-01-10T01:35:48.843Z,927.83
2019-01-10T01:36:01.777Z,927.84
2019-01-10T01:36:14.798Z,927.89
2019-01-10T01:36:27.994Z,927.83
2019-01-10T01:36:40.950Z,927.83
2019-01-10T01:36:53.957Z,927.82
2019-01-10T01:37:06.943Z,927.82
2019-01-10T01:37:20.042Z,927.82
2019-01-10T01:37:33.055Z,927.77
2019-01-10T01:37:46.089Z,927.76
2019-01-10T01:37:59.030Z,927.75
2019-01-10T01:38:12.151Z,927.77
2019-01-10T01:38:25.210Z,927.76
2019-01-10T01:38:38.260Z,927.76
2019-01-10T01:38:51.274Z,927.75
2019-01-10T01:39:04.226Z,927.76
2019-01-10T01:39:17.199Z,927.74
2019-01-10T01:39:30.128Z,927.74
2019-01-10T01:39:43.139Z,927.68
2019-01-10T01:39:56.152Z,927.67
2019-01-10T01:40:09.143Z,927.67
2019-01-10T01:40:22.119Z,927.69
2019-01-10T01:40:35.103Z,927.75
2019-01-10T01:40:48.115Z,927.68
2019-01-10T01:41:01.032Z,927.68
2019-01-10T01:41:14.058Z,927.67
2019-01-10T01:41:27.066Z,927.67
2019-01-10T01:41:40.065Z,927.72
2019-01-10T01:41:53.007Z,927.69
2019-01-10T01:42:06.031Z,927.66
2019-01-10T01:42:19.034Z,927.63
2019-01-10T01:42:31.951Z,927.64
2019-01-10T01:42:44.920Z,927.63
2019-01-10T01:42:57.454Z,927.65
2019-01-10T01:43:17.515Z,927.66
2019-01-10T01:43:30.486Z,927.66
2019-01-10T01:43:43.497Z,927.66
2019-01-10T01:43:56.524Z,927.7
2019-01-10T01:44:09.487Z,927.65
2019-01-10T01:44:22.484Z,927.66
2019-01-10T01:44:35.454Z,927.63
2019-01-10T01:44:48.478Z,927.67
2019-01-10T01:45:01.439Z,927.66
2019-01-10T01:45:14.418Z,927.63
2019-01-10T01:45:27.382Z,927.65
2019-01-10T01:45:40.399Z,927.66
2019-01-10T01:45:53.378Z,927.63
2019-01-10T01:46:07.747Z,927.64
2019-01-10T01:46:20.907Z,927.67
2019-01-10T01:46:33.928Z,927.67
2019-01-10T01:46:46.917Z,927.62
2019-01-10T01:46:59.932Z,927.65
2019-01-10T01:47:12.879Z,927.62
2019-01-10T01:47:25.795Z,927.64
2019-01-10T01:47:38.724Z,927.65
2019-01-10T01:47:51.658Z,927.64
2019-01-10T01:48:04.604Z,927.68
2019-01-10T01:48:17.583Z,927.65
2019-01-10T01:48:30.119Z,927.66
2019-01-10T01:48:43.109Z,927.68
2019-01-10T01:48:56.042Z,927.68
2019-01-10T01:49:09.046Z,927.68
2019-01-10T01:49:22.009Z,927.67
2019-01-10T01:49:35.000Z,927.65
2019-01-10T01:49:47.991Z,927.66
2019-01-10T01:50:01.011Z,927.66
2019-01-10T01:50:14.020Z,927.62
2019-01-10T01:50:27.031Z,927.65
2019-01-10T01:50:40.070Z,927.63
2019-01-10T01:50:53.110Z,927.64
2019-01-10T01:51:06.118Z,927.65
2019-01-10T01:51:19.077Z,927.62
2019-01-10T01:51:33.182Z,927.62
2019-01-10T01:51:46.167Z,927.65
2019-01-10T01:51:59.081Z,927.61
2019-01-10T01:52:12.061Z,927.63
2019-01-10T01:52:24.979Z,927.63
2019-01-10T01:52:37.959Z,927.6
2019-01-10T01:52:50.886Z,927.65
2019-01-10T01:53:03.866Z,927.63
2019-01-10T01:53:17.003Z,927.63
2019-01-10T01:53:29.978Z,927.6
2019-01-10T01:53:42.472Z,927.64
2019-01-10T01:53:55.432Z,927.61
2019-01-10T01:54:08.374Z,927.59
2019-01-10T01:54:21.387Z,927.61
2019-01-10T01:54:34.439Z,927.63
2019-01-10T01:54:47.396Z,927.59
2019-01-10T01:55:00.415Z,927.55
2019-01-10T01:55:13.457Z,927.59
2019-01-10T01:55:25.979Z,927.6
2019-01-10T01:55:38.559Z,927.59
2019-01-10T01:55:51.057Z,927.63
2019-01-10T01:56:04.088Z,927.61
2019-01-10T01:56:17.142Z,927.6
2019-01-10T01:56:30.121Z,927.6
2019-01-10T01:56:43.199Z,927.59
2019-01-10T01:56:56.201Z,927.58
2019-01-10T01:57:09.202Z,927.64
2019-01-10T01:57:22.174Z,927.63
2019-01-10T01:57:35.155Z,927.64
2019-01-10T01:57:48.156Z,927.61
2019-01-10T01:58:01.192Z,927.61
2019-01-10T01:58:14.207Z,927.58
2019-01-10T01:58:27.239Z,927.62
2019-01-10T01:58:40.262Z,927.59
2019-01-10T01:58:53.177Z,927.61
2019-01-10T01:59:06.898Z,927.59
2019-01-10T01:59:19.908Z,927.65
2019-01-10T01:59:32.902Z,927.64
2019-01-10T01:59:45.905Z,927.67
2019-01-10T01:59:58.920Z,927.63
2019-01-10T02:00:11.955Z,927.66
2019-01-10T02:00:24.957Z,927.63
2019-01-10T02:00:37.955Z,927.62
2019-01-10T02:00:50.946Z,927.63
2019-01-10T02:01:03.910Z,927.61
2019-01-10T02:01:16.918Z,927.64
2019-01-10T02:01:29.907Z,927.66
2019-01-10T02:01:42.858Z,927.64
2019-01-10T02:01:55.843Z,927.63
2019-01-10T02:02:08.845Z,927.62
2019-01-10T02:02:21.793Z,927.65
2019-01-10T02:02:34.781Z,927.65
2019-01-10T02:02:47.790Z,927.64
2019-01-10T02:03:00.763Z,927.63
2019-01-10T02:03:13.758Z,927.65
2019-01-10T02:03:26.797Z,927.63
2019-01-10T02:03:39.784Z,927.61
2019-01-10T02:03:52.721Z,927.67
2019-01-10T02:04:05.717Z,927.62
2019-01-10T02:04:18.737Z,927.62
2019-01-10T02:04:31.717Z,927.6
2019-01-10T02:04:44.702Z,927.63
2019-01-10T02:04:57.717Z,927.65
2019-01-10T02:05:10.258Z,927.62
2019-01-10T02:05:23.252Z,927.63
2019-01-10T02:05:36.421Z,927.62
2019-01-10T02:05:49.380Z,927.63
2019-01-10T02:06:02.377Z,927.64
2019-01-10T02:06:15.412Z,927.65
2019-01-10T02:06:28.392Z,927.6
2019-01-10T02:06:42.202Z,927.62
2019-01-10T02:06:55.178Z,927.6
2019-01-10T02:07:08.166Z,927.63
2019-01-10T02:07:21.160Z,927.59
2019-01-10T02:07:34.122Z,927.61
2019-01-10T02:07:47.100Z,927.6
2019-01-10T02:08:00.088Z,927.61
2019-01-10T02:08:13.027Z,927.57
2019-01-10T02:08:26.063Z,927.58
2019-01-10T02:08:39.092Z,927.58
2019-01-10T02:08:52.137Z,927.54
2019-01-10T02:09:05.102Z,927.56
2019-01-10T02:09:18.098Z,927.57
2019-01-10T02:09:31.099Z,927.58
2019-01-10T02:09:44.028Z,927.59
2019-01-10T02:09:57.027Z,927.56
2019-01-10T02:10:09.980Z,927.55
2019-01-10T02:10:22.933Z,927.53
2019-01-10T02:10:35.895Z,927.54
2019-01-10T02:10:48.899Z,927.52
2019-01-10T02:11:01.878Z,927.51
2019-01-10T02:11:14.888Z,927.54
2019-01-10T02:11:27.857Z,927.54
2019-01-10T02:11:40.839Z,927.53
2019-01-10T02:11:53.799Z,927.49
2019-01-10T02:12:06.299Z,927.5
2019-01-10T02:12:19.309Z,927.5
2019-01-10T02:12:32.282Z,927.48
2019-01-10T02:12:45.251Z,927.46
2019-01-10T02:12:58.175Z,927.49
2019-01-10T02:13:20.483Z,927.46
2019-01-10T02:13:33.482Z,927.48
2019-01-10T02:13:46.007Z,927.47
2019-01-10T02:13:59.002Z,927.43
2019-01-10T02:14:11.934Z,927.47
2019-01-10T02:14:24.949Z,927.43
2019-01-10T02:14:37.942Z,927.48
2019-01-10T02:14:50.918Z,927.46
2019-01-10T02:15:03.918Z,927.46
2019-01-10T02:15:18.457Z,927.44
2019-01-10T02:15:31.455Z,927.42
2019-01-10T02:15:44.463Z,927.43
2019-01-10T02:15:57.396Z,927.41
2019-01-10T02:16:10.455Z,927.42
2019-01-10T02:16:23.476Z,927.4
2019-01-10T02:16:36.014Z,927.41
2019-01-10T02:16:49.026Z,927.42
2019-01-10T02:17:02.038Z,927.39
2019-01-10T02:17:15.049Z,927.42
2019-01-10T02:17:27.990Z,927.43
2019-01-10T02:17:49.917Z,927.41
2019-01-10T02:18:02.910Z,927.46
2019-01-10T02:18:15.863Z,927.42
2019-01-10T02:18:28.828Z,927.39
2019-01-10T02:18:41.867Z,927.4
2019-01-10T02:18:54.838Z,927.41
2019-01-10T02:19:07.770Z,927.37
2019-01-10T02:19:20.771Z,927.37
2019-01-10T02:19:33.734Z,927.37
2019-01-10T02:19:46.739Z,927.36
2019-01-10T02:19:59.733Z,927.44
2019-01-10T02:20:12.687Z,927.41
2019-01-10T02:20:25.604Z,927.39
2019-01-10T02:20:38.568Z,927.36
2019-01-10T02:20:51.670Z,927.37
2019-01-10T02:21:04.690Z,927.4
2019-01-10T02:21:17.712Z,927.35
2019-01-10T02:21:30.256Z,927.4
2019-01-10T02:21:43.261Z,927.4
2019-01-10T02:21:56.240Z,927.39
2019-01-10T02:22:09.242Z,927.38
2019-01-10T02:22:22.268Z,927.39
2019-01-10T02:22:35.242Z,927.4
2019-01-10T02:22:48.707Z,927.42
2019-01-10T02:23:01.779Z,927.42
2019-01-10T02:23:14.794Z,927.42
2019-01-10T02:23:27.905Z,927.43
2019-01-10T02:23:40.926Z,927.43
2019-01-10T02:23:53.970Z,927.46
2019-01-10T02:24:06.993Z,927.43
2019-01-10T02:24:20.022Z,927.46
2019-01-10T02:24:32.999Z,927.45
2019-01-10T02:24:46.038Z,927.43
2019-01-10T02:24:59.019Z,927.47
2019-01-10T02:25:12.060Z,927.48
2019-01-10T02:25:25.112Z,927.48
2019-01-10T02:25:38.099Z,927.47
2019-01-10T02:25:51.071Z,927.47
2019-01-10T02:26:04.026Z,927.44
2019-01-10T02:26:17.057Z,927.48
2019-01-10T02:26:30.082Z,927.45
2019-01-10T02:26:43.092Z,927.48
2019-01-10T02:26:56.076Z,927.41
2019-01-10T02:27:09.017Z,927.46
2019-01-10T02:27:22.069Z,927.45
2019-01-10T02:27:35.070Z,927.45
2019-01-10T02:27:48.075Z,927.45
2019-01-10T02:28:01.041Z,927.45
2019-01-10T02:28:13.975Z,927.43
2019-01-10T02:28:28.893Z,927.43
2019-01-10T02:28:41.954Z,927.43
2019-01-10T02:28:54.972Z,927.42
2019-01-10T02:29:07.983Z,927.41
2019-01-10T02:29:20.942Z,927.41
2019-01-10T02:29:33.967Z,927.37
2019-01-10T02:29:46.961Z,927.38
2019-01-10T02:29:59.972Z,927.36
2019-01-10T02:30:12.991Z,927.37
2019-01-10T02:30:25.552Z,927.34
2019-01-10T02:30:48.849Z,927.36
2019-01-10T02:31:01.900Z,927.34
2019-01-10T02:31:14.901Z,927.37
2019-01-10T02:31:27.916Z,927.36
2019-01-10T02:31:40.914Z,927.33
2019-01-10T02:31:53.970Z,927.35
2019-01-10T02:32:07.031Z,927.33
2019-01-10T02:32:20.034Z,927.36
2019-01-10T02:32:33.030Z,927.32
2019-01-10T02:32:46.049Z,927.33
2019-01-10T02:32:59.070Z,927.28
2019-01-10T02:33:12.048Z,927.28
2019-01-10T02:33:25.046Z,927.27
2019-01-10T02:33:37.989Z,927.27
2019-01-10T02:33:51.031Z,927.28
2019-01-10T02:34:04.017Z,927.28
2019-01-10T02:34:16.970Z,927.25
2019-01-10T02:34:30.020Z,927.22
2019-01-10T02:34:43.023Z,927.28
2019-01-10T02:34:56.006Z,927.26
2019-01-10T02:35:09.027Z,927.22
2019-01-10T02:35:21.970Z,927.2
2019-01-10T02:35:35.028Z,927.23
2019-01-10T02:35:47.997Z,927.21
2019-01-10T02:36:00.991Z,927.19
2019-01-10T02:36:14.129Z,927.15
2019-01-10T02:36:27.151Z,927.21
2019-01-10T02:36:40.156Z,927.16
2019-01-10T02:36:53.117Z,927.21
2019-01-10T02:37:06.161Z,927.18
2019-01-10T02:37:19.167Z,927.17
2019-01-10T02:37:32.178Z,927.18
2019-01-10T02:37:45.210Z,927.19
2019-01-10T02:37:58.254Z,927.16
2019-01-10T02:38:11.261Z,927.15
2019-01-10T02:38:24.308Z,927.16
2019-01-10T02:38:37.398Z,927.13
2019-01-10T02:38:50.406Z,927.12
2019-01-10T02:39:02.991Z,927.14
2019-01-10T02:39:16.010Z,927.11
2019-01-10T02:39:29.047Z,927.14
2019-01-10T02:39:42.021Z,927.11
2019-01-10T02:39:55.009Z,927.11
2019-01-10T02:40:08.130Z,927.08
2019-01-10T02:40:21.103Z,927.11
2019-01-10T02:40:34.120Z,927.11
2019-01-10T02:40:47.120Z,927.11
2019-01-10T02:41:00.072Z,927.06
2019-01-10T02:41:13.079Z,927.06
2019-01-10T02:41:25.598Z,927.04
2019-01-10T02:41:38.625Z,927.08
2019-01-10T02:41:51.613Z,927.11
2019-01-10T02:42:04.561Z,927.05
2019-01-10T02:42:17.578Z,927.07
2019-01-10T02:42:30.563Z,927.05
2019-01-10T02:42:43.569Z,927.04
2019-01-10T02:42:56.573Z,927.04
2019-01-10T02:43:09.553Z,927.02
2019-01-10T02:43:30.548Z,927.07
2019-01-10T02:43:43.535Z,927.04
2019-01-10T02:43:56.511Z,927.04